sensor_id;sensor_type;location;lat;lon;timestamp;P1;durP1;ratioP1;P2;durP2;ratioP2
12493;SDS011;8260;51.422;6.786;2023-05-07T00:02:14;4.95;;;3.58;;
12493;SDS011;8260;51.422;6.786;2023-05-07T00:04:43;3.42;;;3.05;;
12493;SDS011;8260;51.422;6.786;2023-05-07T00:07:11;5.80;;;3.30;;
12493;SDS011;8260;51.422;6.786;2023-05-07T00:09:40;7.45;;;3.70;;
12493;SDS011;8260;51.422;6.786;2023-05-07T00:12:09;3.85;;;3.05;;
12493;SDS011;8260;51.422;6.786;2023-05-07T00:14:38;4.97;;;3.42;;
12493;SDS011;8260;51.422;6.786;2023-05-07T00:17:08;3.85;;;3.13;;
12493;SDS011;8260;51.422;6.786;2023-05-07T00:19:36;4.38;;;2.75;;
12493;SDS011;8260;51.422;6.786;2023-05-07T00:22:05;4.80;;;3.30;;
12493;SDS011;8260;51.422;6.786;2023-05-07T00:24:33;5.15;;;3.55;;
12493;SDS011;8260;51.422;6.786;2023-05-07T00:27:02;4.30;;;3.70;;
12493;SDS011;8260;51.422;6.786;2023-05-07T00:29:30;5.88;;;4.10;;
12493;SDS011;8260;51.422;6.786;2023-05-07T00:31:59;5.97;;;4.90;;
12493;SDS011;8260;51.422;6.786;2023-05-07T00:34:29;6.68;;;5.85;;
12493;SDS011;8260;51.422;6.786;2023-05-07T00:36:57;6.38;;;5.40;;
12493;SDS011;8260;51.422;6.786;2023-05-07T00:39:26;6.07;;;5.43;;
12493;SDS011;8260;51.422;6.786;2023-05-07T00:41:54;7.00;;;5.50;;
12493;SDS011;8260;51.422;6.786;2023-05-07T00:44:23;6.95;;;6.03;;
12493;SDS011;8260;51.422;6.786;2023-05-07T00:46:52;5.93;;;4.78;;
12493;SDS011;8260;51.422;6.786;2023-05-07T00:49:21;6.35;;;5.60;;
12493;SDS011;8260;51.422;6.786;2023-05-07T00:51:51;8.48;;;5.40;;
12493;SDS011;8260;51.422;6.786;2023-05-07T00:54:20;6.05;;;4.97;;
12493;SDS011;8260;51.422;6.786;2023-05-07T00:56:48;7.38;;;5.90;;
12493;SDS011;8260;51.422;6.786;2023-05-07T00:59:17;6.55;;;5.78;;
12493;SDS011;8260;51.422;6.786;2023-05-07T01:01:46;7.25;;;6.55;;
12493;SDS011;8260;51.422;6.786;2023-05-07T01:04:15;7.72;;;6.30;;
12493;SDS011;8260;51.422;6.786;2023-05-07T01:06:44;6.85;;;6.10;;
12493;SDS011;8260;51.422;6.786;2023-05-07T01:09:15;8.68;;;5.57;;
12493;SDS011;8260;51.422;6.786;2023-05-07T01:11:43;6.47;;;5.80;;
12493;SDS011;8260;51.422;6.786;2023-05-07T01:14:12;7.25;;;5.85;;
12493;SDS011;8260;51.422;6.786;2023-05-07T01:16:41;7.80;;;6.80;;
12493;SDS011;8260;51.422;6.786;2023-05-07T01:19:09;8.80;;;6.88;;
12493;SDS011;8260;51.422;6.786;2023-05-07T01:21:40;7.97;;;6.47;;
12493;SDS011;8260;51.422;6.786;2023-05-07T01:24:13;9.00;;;6.40;;
12493;SDS011;8260;51.422;6.786;2023-05-07T01:26:42;8.68;;;6.45;;
12493;SDS011;8260;51.422;6.786;2023-05-07T01:29:11;6.93;;;6.28;;
12493;SDS011;8260;51.422;6.786;2023-05-07T01:31:39;8.40;;;6.65;;
12493;SDS011;8260;51.422;6.786;2023-05-07T01:34:10;7.07;;;6.38;;
12493;SDS011;8260;51.422;6.786;2023-05-07T01:36:39;7.05;;;6.35;;
12493;SDS011;8260;51.422;6.786;2023-05-07T01:39:09;7.03;;;6.32;;
12493;SDS011;8260;51.422;6.786;2023-05-07T01:41:40;8.45;;;5.75;;
12493;SDS011;8260;51.422;6.786;2023-05-07T01:44:08;7.45;;;6.40;;
12493;SDS011;8260;51.422;6.786;2023-05-07T01:46:38;6.93;;;6.00;;
12493;SDS011;8260;51.422;6.786;2023-05-07T01:49:07;7.35;;;6.45;;
12493;SDS011;8260;51.422;6.786;2023-05-07T01:51:36;8.43;;;6.30;;
12493;SDS011;8260;51.422;6.786;2023-05-07T01:54:04;8.02;;;6.40;;
12493;SDS011;8260;51.422;6.786;2023-05-07T01:56:36;6.72;;;6.13;;
12493;SDS011;8260;51.422;6.786;2023-05-07T01:59:06;7.15;;;5.50;;
12493;SDS011;8260;51.422;6.786;2023-05-07T02:01:34;6.97;;;6.20;;
12493;SDS011;8260;51.422;6.786;2023-05-07T02:04:03;7.47;;;6.75;;
12493;SDS011;8260;51.422;6.786;2023-05-07T02:06:32;7.28;;;6.13;;
12493;SDS011;8260;51.422;6.786;2023-05-07T02:09:01;7.60;;;6.47;;
12493;SDS011;8260;51.422;6.786;2023-05-07T02:11:29;7.15;;;6.45;;
12493;SDS011;8260;51.422;6.786;2023-05-07T02:13:58;7.28;;;6.03;;
12493;SDS011;8260;51.422;6.786;2023-05-07T02:16:28;7.15;;;6.45;;
12493;SDS011;8260;51.422;6.786;2023-05-07T02:18:56;7.65;;;6.15;;
12493;SDS011;8260;51.422;6.786;2023-05-07T02:21:25;6.88;;;6.10;;
12493;SDS011;8260;51.422;6.786;2023-05-07T02:23:56;6.32;;;5.72;;
12493;SDS011;8260;51.422;6.786;2023-05-07T02:26:24;7.57;;;6.50;;
12493;SDS011;8260;51.422;6.786;2023-05-07T02:28:53;6.10;;;5.30;;
12493;SDS011;8260;51.422;6.786;2023-05-07T02:31:22;6.32;;;5.57;;
12493;SDS011;8260;51.422;6.786;2023-05-07T02:33:52;7.32;;;6.63;;
12493;SDS011;8260;51.422;6.786;2023-05-07T02:36:20;7.82;;;6.65;;
12493;SDS011;8260;51.422;6.786;2023-05-07T02:38:49;7.38;;;5.53;;
12493;SDS011;8260;51.422;6.786;2023-05-07T02:41:17;8.07;;;5.80;;
12493;SDS011;8260;51.422;6.786;2023-05-07T02:43:46;5.78;;;5.18;;
12493;SDS011;8260;51.422;6.786;2023-05-07T02:46:15;6.78;;;5.35;;
12493;SDS011;8260;51.422;6.786;2023-05-07T02:48:43;5.38;;;4.88;;
12493;SDS011;8260;51.422;6.786;2023-05-07T02:51:13;6.07;;;5.35;;
12493;SDS011;8260;51.422;6.786;2023-05-07T02:53:42;6.82;;;6.07;;
12493;SDS011;8260;51.422;6.786;2023-05-07T02:56:11;6.03;;;5.53;;
12493;SDS011;8260;51.422;6.786;2023-05-07T02:58:39;6.10;;;5.50;;
12493;SDS011;8260;51.422;6.786;2023-05-07T03:01:08;7.88;;;5.72;;
12493;SDS011;8260;51.422;6.786;2023-05-07T03:03:37;6.72;;;5.80;;
12493;SDS011;8260;51.422;6.786;2023-05-07T03:06:05;6.47;;;5.88;;
12493;SDS011;8260;51.422;6.786;2023-05-07T03:08:36;7.60;;;5.80;;
12493;SDS011;8260;51.422;6.786;2023-05-07T03:11:04;6.38;;;5.57;;
12493;SDS011;8260;51.422;6.786;2023-05-07T03:13:33;6.07;;;5.47;;
12493;SDS011;8260;51.422;6.786;2023-05-07T03:16:01;7.95;;;6.40;;
12493;SDS011;8260;51.422;6.786;2023-05-07T03:18:30;7.18;;;5.97;;
12493;SDS011;8260;51.422;6.786;2023-05-07T03:20:58;6.93;;;6.13;;
12493;SDS011;8260;51.422;6.786;2023-05-07T03:23:27;8.60;;;6.32;;
12493;SDS011;8260;51.422;6.786;2023-05-07T03:25:57;9.77;;;6.78;;
12493;SDS011;8260;51.422;6.786;2023-05-07T03:28:26;6.75;;;6.07;;
12493;SDS011;8260;51.422;6.786;2023-05-07T03:30:54;8.07;;;7.28;;
12493;SDS011;8260;51.422;6.786;2023-05-07T03:33:23;6.93;;;6.18;;
12493;SDS011;8260;51.422;6.786;2023-05-07T03:35:52;8.07;;;7.20;;
12493;SDS011;8260;51.422;6.786;2023-05-07T03:38:20;8.25;;;7.47;;
12493;SDS011;8260;51.422;6.786;2023-05-07T03:40:49;8.48;;;7.55;;
12493;SDS011;8260;51.422;6.786;2023-05-07T03:43:19;6.72;;;5.93;;
12493;SDS011;8260;51.422;6.786;2023-05-07T03:45:47;8.63;;;7.20;;
12493;SDS011;8260;51.422;6.786;2023-05-07T03:48:16;8.45;;;6.93;;
12493;SDS011;8260;51.422;6.786;2023-05-07T03:50:44;7.03;;;6.32;;
12493;SDS011;8260;51.422;6.786;2023-05-07T03:53:14;7.55;;;6.85;;
12493;SDS011;8260;51.422;6.786;2023-05-07T03:55:42;8.32;;;7.38;;
12493;SDS011;8260;51.422;6.786;2023-05-07T03:58:11;8.20;;;7.40;;
12493;SDS011;8260;51.422;6.786;2023-05-07T04:00:41;8.27;;;7.05;;
12493;SDS011;8260;51.422;6.786;2023-05-07T04:03:09;9.25;;;7.35;;
12493;SDS011;8260;51.422;6.786;2023-05-07T04:05:38;10.77;;;7.22;;
12493;SDS011;8260;51.422;6.786;2023-05-07T04:08:07;8.65;;;7.13;;
12493;SDS011;8260;51.422;6.786;2023-05-07T04:10:35;9.90;;;8.00;;
12493;SDS011;8260;51.422;6.786;2023-05-07T04:13:04;9.88;;;8.88;;
12493;SDS011;8260;51.422;6.786;2023-05-07T04:15:33;9.95;;;8.95;;
12493;SDS011;8260;51.422;6.786;2023-05-07T04:18:02;10.93;;;9.35;;
12493;SDS011;8260;51.422;6.786;2023-05-07T04:20:33;11.88;;;10.68;;
12493;SDS011;8260;51.422;6.786;2023-05-07T04:23:03;10.45;;;9.40;;
12493;SDS011;8260;51.422;6.786;2023-05-07T04:25:31;11.35;;;10.27;;
12493;SDS011;8260;51.422;6.786;2023-05-07T04:28:00;11.52;;;10.23;;
12493;SDS011;8260;51.422;6.786;2023-05-07T04:30:29;9.90;;;8.90;;
12493;SDS011;8260;51.422;6.786;2023-05-07T04:32:58;13.93;;;9.48;;
12493;SDS011;8260;51.422;6.786;2023-05-07T04:35:27;10.45;;;9.13;;
12493;SDS011;8260;51.422;6.786;2023-05-07T04:37:56;10.38;;;9.38;;
12493;SDS011;8260;51.422;6.786;2023-05-07T04:40:24;10.10;;;8.95;;
12493;SDS011;8260;51.422;6.786;2023-05-07T04:42:53;8.95;;;8.07;;
12493;SDS011;8260;51.422;6.786;2023-05-07T04:45:21;9.80;;;8.80;;
12493;SDS011;8260;51.422;6.786;2023-05-07T04:47:50;8.80;;;8.00;;
12493;SDS011;8260;51.422;6.786;2023-05-07T04:50:19;8.10;;;7.28;;
12493;SDS011;8260;51.422;6.786;2023-05-07T04:52:51;8.73;;;7.97;;
12493;SDS011;8260;51.422;6.786;2023-05-07T04:55:19;8.38;;;7.57;;
12493;SDS011;8260;51.422;6.786;2023-05-07T04:57:48;10.35;;;9.25;;
12493;SDS011;8260;51.422;6.786;2023-05-07T05:00:17;13.68;;;9.38;;
12493;SDS011;8260;51.422;6.786;2023-05-07T05:02:45;9.93;;;8.93;;
12493;SDS011;8260;51.422;6.786;2023-05-07T05:05:14;9.45;;;8.45;;
12493;SDS011;8260;51.422;6.786;2023-05-07T05:07:43;9.50;;;8.60;;
12493;SDS011;8260;51.422;6.786;2023-05-07T05:10:13;11.27;;;9.23;;
12493;SDS011;8260;51.422;6.786;2023-05-07T05:12:42;10.80;;;9.75;;
12493;SDS011;8260;51.422;6.786;2023-05-07T05:15:11;15.40;;;9.85;;
12493;SDS011;8260;51.422;6.786;2023-05-07T05:17:40;11.25;;;9.80;;
12493;SDS011;8260;51.422;6.786;2023-05-07T05:20:08;11.38;;;10.18;;
12493;SDS011;8260;51.422;6.786;2023-05-07T05:22:38;13.95;;;10.82;;
12493;SDS011;8260;51.422;6.786;2023-05-07T05:25:07;12.35;;;10.88;;
12493;SDS011;8260;51.422;6.786;2023-05-07T05:27:37;12.02;;;10.68;;
12493;SDS011;8260;51.422;6.786;2023-05-07T05:30:06;11.73;;;10.63;;
12493;SDS011;8260;51.422;6.786;2023-05-07T05:32:35;11.43;;;10.25;;
12493;SDS011;8260;51.422;6.786;2023-05-07T05:35:04;12.35;;;11.15;;
12493;SDS011;8260;51.422;6.786;2023-05-07T05:37:32;13.25;;;11.70;;
12493;SDS011;8260;51.422;6.786;2023-05-07T05:40:01;13.43;;;11.93;;
12493;SDS011;8260;51.422;6.786;2023-05-07T05:42:30;14.85;;;12.70;;
12493;SDS011;8260;51.422;6.786;2023-05-07T05:45:00;13.45;;;12.10;;
12493;SDS011;8260;51.422;6.786;2023-05-07T05:47:29;13.48;;;12.13;;
12493;SDS011;8260;51.422;6.786;2023-05-07T05:49:57;13.68;;;12.27;;
12493;SDS011;8260;51.422;6.786;2023-05-07T05:52:26;12.82;;;11.40;;
12493;SDS011;8260;51.422;6.786;2023-05-07T05:54:54;13.55;;;11.63;;
12493;SDS011;8260;51.422;6.786;2023-05-07T05:57:23;12.50;;;11.20;;
12493;SDS011;8260;51.422;6.786;2023-05-07T05:59:54;13.65;;;12.25;;
12493;SDS011;8260;51.422;6.786;2023-05-07T06:02:26;12.50;;;11.20;;
12493;SDS011;8260;51.422;6.786;2023-05-07T06:04:54;11.93;;;10.50;;
12493;SDS011;8260;51.422;6.786;2023-05-07T06:07:23;13.27;;;11.98;;
12493;SDS011;8260;51.422;6.786;2023-05-07T06:09:51;12.23;;;11.13;;
12493;SDS011;8260;51.422;6.786;2023-05-07T06:12:21;11.68;;;10.55;;
12493;SDS011;8260;51.422;6.786;2023-05-07T06:14:50;11.10;;;10.07;;
12493;SDS011;8260;51.422;6.786;2023-05-07T06:17:19;11.35;;;10.23;;
12493;SDS011;8260;51.422;6.786;2023-05-07T06:19:49;10.45;;;9.45;;
12493;SDS011;8260;51.422;6.786;2023-05-07T06:22:17;10.85;;;9.75;;
12493;SDS011;8260;51.422;6.786;2023-05-07T06:24:46;10.85;;;8.90;;
12493;SDS011;8260;51.422;6.786;2023-05-07T06:27:15;11.57;;;8.90;;
12493;SDS011;8260;51.422;6.786;2023-05-07T06:29:43;9.88;;;8.98;;
12493;SDS011;8260;51.422;6.786;2023-05-07T06:32:12;9.20;;;8.25;;
12493;SDS011;8260;51.422;6.786;2023-05-07T06:34:41;10.65;;;8.35;;
12493;SDS011;8260;51.422;6.786;2023-05-07T06:37:11;8.85;;;7.95;;
12493;SDS011;8260;51.422;6.786;2023-05-07T06:39:40;8.93;;;8.02;;
12493;SDS011;8260;51.422;6.786;2023-05-07T06:42:08;7.82;;;7.03;;
12493;SDS011;8260;51.422;6.786;2023-05-07T06:44:37;7.53;;;6.47;;
12493;SDS011;8260;51.422;6.786;2023-05-07T06:47:05;8.13;;;7.20;;
12493;SDS011;8260;51.422;6.786;2023-05-07T06:49:34;7.60;;;6.80;;
12493;SDS011;8260;51.422;6.786;2023-05-07T06:52:03;7.40;;;6.70;;
12493;SDS011;8260;51.422;6.786;2023-05-07T06:54:32;8.15;;;5.85;;
12493;SDS011;8260;51.422;6.786;2023-05-07T06:57:01;7.40;;;6.70;;
12493;SDS011;8260;51.422;6.786;2023-05-07T06:59:30;7.07;;;6.38;;
12493;SDS011;8260;51.422;6.786;2023-05-07T07:01:58;8.20;;;6.72;;
12493;SDS011;8260;51.422;6.786;2023-05-07T07:04:27;6.95;;;6.28;;
12493;SDS011;8260;51.422;6.786;2023-05-07T07:06:56;7.07;;;6.47;;
12493;SDS011;8260;51.422;6.786;2023-05-07T07:09:24;6.70;;;6.10;;
12493;SDS011;8260;51.422;6.786;2023-05-07T07:11:55;9.77;;;6.60;;
12493;SDS011;8260;51.422;6.786;2023-05-07T07:14:23;7.97;;;6.50;;
12493;SDS011;8260;51.422;6.786;2023-05-07T07:16:52;6.40;;;5.38;;
12493;SDS011;8260;51.422;6.786;2023-05-07T07:19:20;7.95;;;5.75;;
12493;SDS011;8260;51.422;6.786;2023-05-07T07:21:49;7.65;;;5.88;;
12493;SDS011;8260;51.422;6.786;2023-05-07T07:24:17;6.05;;;4.80;;
12493;SDS011;8260;51.422;6.786;2023-05-07T07:26:49;5.45;;;4.78;;
12493;SDS011;8260;51.422;6.786;2023-05-07T07:29:19;5.68;;;4.85;;
12493;SDS011;8260;51.422;6.786;2023-05-07T07:31:48;4.90;;;4.50;;
12493;SDS011;8260;51.422;6.786;2023-05-07T07:34:16;4.40;;;4.00;;
12493;SDS011;8260;51.422;6.786;2023-05-07T07:36:45;5.78;;;4.30;;
12493;SDS011;8260;51.422;6.786;2023-05-07T07:39:13;5.00;;;4.30;;
12493;SDS011;8260;51.422;6.786;2023-05-07T07:41:45;4.25;;;3.85;;
12493;SDS011;8260;51.422;6.786;2023-05-07T07:44:13;4.57;;;3.95;;
12493;SDS011;8260;51.422;6.786;2023-05-07T07:46:43;4.63;;;4.22;;
12493;SDS011;8260;51.422;6.786;2023-05-07T07:49:12;3.97;;;3.58;;
12493;SDS011;8260;51.422;6.786;2023-05-07T07:51:41;6.22;;;3.55;;
12493;SDS011;8260;51.422;6.786;2023-05-07T07:54:09;5.70;;;4.10;;
12493;SDS011;8260;51.422;6.786;2023-05-07T07:56:38;6.03;;;4.32;;
12493;SDS011;8260;51.422;6.786;2023-05-07T07:59:07;5.00;;;4.53;;
12493;SDS011;8260;51.422;6.786;2023-05-07T08:01:35;4.18;;;3.80;;
12493;SDS011;8260;51.422;6.786;2023-05-07T08:04:05;4.30;;;3.90;;
12493;SDS011;8260;51.422;6.786;2023-05-07T08:06:34;4.43;;;3.78;;
12493;SDS011;8260;51.422;6.786;2023-05-07T08:09:02;4.68;;;4.03;;
12493;SDS011;8260;51.422;6.786;2023-05-07T08:11:31;3.70;;;3.28;;
12493;SDS011;8260;51.422;6.786;2023-05-07T08:14:03;3.67;;;3.38;;
12493;SDS011;8260;51.422;6.786;2023-05-07T08:16:32;5.30;;;3.88;;
12493;SDS011;8260;51.422;6.786;2023-05-07T08:19:00;3.88;;;3.03;;
12493;SDS011;8260;51.422;6.786;2023-05-07T08:21:31;8.63;;;3.28;;
12493;SDS011;8260;51.422;6.786;2023-05-07T08:24:00;3.15;;;2.85;;
12493;SDS011;8260;51.422;6.786;2023-05-07T08:26:28;4.60;;;3.03;;
12493;SDS011;8260;51.422;6.786;2023-05-07T08:28:58;4.03;;;2.60;;
12493;SDS011;8260;51.422;6.786;2023-05-07T08:31:26;4.22;;;2.70;;
12493;SDS011;8260;51.422;6.786;2023-05-07T08:33:55;4.68;;;2.50;;
12493;SDS011;8260;51.422;6.786;2023-05-07T08:36:23;4.97;;;2.85;;
12493;SDS011;8260;51.422;6.786;2023-05-07T08:38:54;3.75;;;3.03;;
12493;SDS011;8260;51.422;6.786;2023-05-07T08:41:23;4.18;;;3.20;;
12493;SDS011;8260;51.422;6.786;2023-05-07T08:43:51;3.15;;;2.63;;
12493;SDS011;8260;51.422;6.786;2023-05-07T08:46:21;2.80;;;2.40;;
12493;SDS011;8260;51.422;6.786;2023-05-07T08:48:50;2.70;;;2.50;;
12493;SDS011;8260;51.422;6.786;2023-05-07T08:51:19;2.80;;;2.35;;
12493;SDS011;8260;51.422;6.786;2023-05-07T08:53:49;4.38;;;2.63;;
12493;SDS011;8260;51.422;6.786;2023-05-07T08:56:19;3.28;;;2.40;;
12493;SDS011;8260;51.422;6.786;2023-05-07T08:58:48;3.22;;;2.05;;
12493;SDS011;8260;51.422;6.786;2023-05-07T09:01:17;3.90;;;1.95;;
12493;SDS011;8260;51.422;6.786;2023-05-07T09:03:46;3.88;;;2.15;;
12493;SDS011;8260;51.422;6.786;2023-05-07T09:06:15;2.75;;;2.50;;
12493;SDS011;8260;51.422;6.786;2023-05-07T09:08:48;2.58;;;2.10;;
12493;SDS011;8260;51.422;6.786;2023-05-07T09:11:21;3.65;;;2.20;;
12493;SDS011;8260;51.422;6.786;2023-05-07T09:13:52;2.70;;;2.33;;
12493;SDS011;8260;51.422;6.786;2023-05-07T09:16:21;4.10;;;2.05;;
12493;SDS011;8260;51.422;6.786;2023-05-07T09:18:51;2.20;;;2.03;;
12493;SDS011;8260;51.422;6.786;2023-05-07T09:21:20;2.25;;;1.90;;
12493;SDS011;8260;51.422;6.786;2023-05-07T09:23:50;5.15;;;2.40;;
12493;SDS011;8260;51.422;6.786;2023-05-07T09:26:22;4.50;;;2.20;;
12493;SDS011;8260;51.422;6.786;2023-05-07T09:28:51;4.60;;;2.03;;
12493;SDS011;8260;51.422;6.786;2023-05-07T09:31:20;2.30;;;2.08;;
12493;SDS011;8260;51.422;6.786;2023-05-07T09:33:52;6.88;;;2.97;;
12493;SDS011;8260;51.422;6.786;2023-05-07T09:36:22;2.30;;;2.08;;
12493;SDS011;8260;51.422;6.786;2023-05-07T09:38:51;2.72;;;2.45;;
12493;SDS011;8260;51.422;6.786;2023-05-07T09:41:21;2.60;;;2.25;;
12493;SDS011;8260;51.422;6.786;2023-05-07T09:43:53;3.78;;;2.88;;
12493;SDS011;8260;51.422;6.786;2023-05-07T09:46:25;3.20;;;2.65;;
12493;SDS011;8260;51.422;6.786;2023-05-07T09:48:56;2.75;;;2.05;;
12493;SDS011;8260;51.422;6.786;2023-05-07T09:51:34;2.47;;;2.10;;
12493;SDS011;8260;51.422;6.786;2023-05-07T09:54:07;3.35;;;1.83;;
12493;SDS011;8260;51.422;6.786;2023-05-07T09:56:37;3.38;;;1.90;;
12493;SDS011;8260;51.422;6.786;2023-05-07T09:59:08;2.75;;;1.75;;
12493;SDS011;8260;51.422;6.786;2023-05-07T10:01:38;2.38;;;2.17;;
12493;SDS011;8260;51.422;6.786;2023-05-07T10:04:09;2.90;;;2.40;;
12493;SDS011;8260;51.422;6.786;2023-05-07T10:06:38;2.75;;;2.33;;
12493;SDS011;8260;51.422;6.786;2023-05-07T10:09:07;3.38;;;2.10;;
12493;SDS011;8260;51.422;6.786;2023-05-07T10:11:36;2.78;;;2.08;;
12493;SDS011;8260;51.422;6.786;2023-05-07T10:14:06;2.05;;;1.95;;
12493;SDS011;8260;51.422;6.786;2023-05-07T10:16:35;2.75;;;1.85;;
12493;SDS011;8260;51.422;6.786;2023-05-07T10:19:04;2.40;;;1.67;;
12493;SDS011;8260;51.422;6.786;2023-05-07T10:21:34;3.58;;;1.77;;
12493;SDS011;8260;51.422;6.786;2023-05-07T10:24:04;3.75;;;1.95;;
12493;SDS011;8260;51.422;6.786;2023-05-07T10:26:35;4.05;;;2.45;;
12493;SDS011;8260;51.422;6.786;2023-05-07T10:29:05;3.42;;;2.00;;
12493;SDS011;8260;51.422;6.786;2023-05-07T10:31:41;2.25;;;2.00;;
12493;SDS011;8260;51.422;6.786;2023-05-07T10:34:17;2.25;;;1.73;;
12493;SDS011;8260;51.422;6.786;2023-05-07T10:36:46;2.40;;;1.98;;
12493;SDS011;8260;51.422;6.786;2023-05-07T10:39:16;3.63;;;1.80;;
12493;SDS011;8260;51.422;6.786;2023-05-07T10:41:44;2.17;;;1.98;;
12493;SDS011;8260;51.422;6.786;2023-05-07T10:44:19;2.13;;;1.92;;
12493;SDS011;8260;51.422;6.786;2023-05-07T10:52:31;2.10;;;1.90;;
12493;SDS011;8260;51.422;6.786;2023-05-07T10:55:18;3.33;;;2.10;;
12493;SDS011;8260;51.422;6.786;2023-05-07T10:57:48;2.58;;;2.25;;
12493;SDS011;8260;51.422;6.786;2023-05-07T11:03:09;3.25;;;2.20;;
12493;SDS011;8260;51.422;6.786;2023-05-07T11:05:38;4.50;;;2.40;;
12493;SDS011;8260;51.422;6.786;2023-05-07T11:08:08;4.25;;;2.25;;
12493;SDS011;8260;51.422;6.786;2023-05-07T11:10:50;2.25;;;2.00;;
12493;SDS011;8260;51.422;6.786;2023-05-07T11:13:40;4.72;;;2.40;;
12493;SDS011;8260;51.422;6.786;2023-05-07T11:16:16;3.22;;;2.28;;
12493;SDS011;8260;51.422;6.786;2023-05-07T11:18:45;3.15;;;2.35;;
12493;SDS011;8260;51.422;6.786;2023-05-07T11:21:20;2.88;;;2.67;;
12493;SDS011;8260;51.422;6.786;2023-05-07T11:24:01;2.65;;;2.33;;
12493;SDS011;8260;51.422;6.786;2023-05-07T11:26:30;2.85;;;2.45;;
12493;SDS011;8260;51.422;6.786;2023-05-07T11:28:59;3.40;;;2.45;;
12493;SDS011;8260;51.422;6.786;2023-05-07T11:31:28;3.83;;;2.20;;
12493;SDS011;8260;51.422;6.786;2023-05-07T11:33:58;3.80;;;2.80;;
12493;SDS011;8260;51.422;6.786;2023-05-07T11:36:30;5.55;;;2.80;;
12493;SDS011;8260;51.422;6.786;2023-05-07T11:39:01;2.78;;;2.58;;
12493;SDS011;8260;51.422;6.786;2023-05-07T11:41:35;3.67;;;2.53;;
12493;SDS011;8260;51.422;6.786;2023-05-07T11:44:04;2.75;;;2.55;;
12493;SDS011;8260;51.422;6.786;2023-05-07T11:46:33;4.57;;;2.67;;
12493;SDS011;8260;51.422;6.786;2023-05-07T11:49:02;2.55;;;2.33;;
12493;SDS011;8260;51.422;6.786;2023-05-07T11:54:08;2.70;;;2.50;;
12493;SDS011;8260;51.422;6.786;2023-05-07T11:56:37;2.78;;;2.33;;
12493;SDS011;8260;51.422;6.786;2023-05-07T11:59:06;3.30;;;2.33;;
12493;SDS011;8260;51.422;6.786;2023-05-07T12:01:35;6.30;;;2.40;;
12493;SDS011;8260;51.422;6.786;2023-05-07T12:04:04;2.80;;;2.38;;
12493;SDS011;8260;51.422;6.786;2023-05-07T12:06:35;3.10;;;2.50;;
12493;SDS011;8260;51.422;6.786;2023-05-07T12:09:05;3.30;;;2.42;;
12493;SDS011;8260;51.422;6.786;2023-05-07T12:11:39;3.90;;;2.42;;
12493;SDS011;8260;51.422;6.786;2023-05-07T12:14:08;3.33;;;2.20;;
12493;SDS011;8260;51.422;6.786;2023-05-07T12:16:38;3.33;;;2.22;;
12493;SDS011;8260;51.422;6.786;2023-05-07T12:19:08;2.22;;;2.03;;
12493;SDS011;8260;51.422;6.786;2023-05-07T12:21:41;2.97;;;1.98;;
12493;SDS011;8260;51.422;6.786;2023-05-07T12:24:10;3.17;;;2.67;;
12493;SDS011;8260;51.422;6.786;2023-05-07T12:26:40;2.50;;;2.22;;
12493;SDS011;8260;51.422;6.786;2023-05-07T12:29:08;2.85;;;2.10;;
12493;SDS011;8260;51.422;6.786;2023-05-07T12:31:40;4.95;;;2.30;;
12493;SDS011;8260;51.422;6.786;2023-05-07T12:34:10;3.15;;;2.40;;
12493;SDS011;8260;51.422;6.786;2023-05-07T12:36:38;2.45;;;2.00;;
12493;SDS011;8260;51.422;6.786;2023-05-07T12:39:08;4.97;;;2.58;;
12493;SDS011;8260;51.422;6.786;2023-05-07T12:44:31;4.22;;;2.40;;
12493;SDS011;8260;51.422;6.786;2023-05-07T12:47:01;2.53;;;2.20;;
12493;SDS011;8260;51.422;6.786;2023-05-07T12:49:30;2.83;;;2.15;;
12493;SDS011;8260;51.422;6.786;2023-05-07T12:51:59;3.55;;;2.35;;
12493;SDS011;8260;51.422;6.786;2023-05-07T12:54:27;3.25;;;2.20;;
12493;SDS011;8260;51.422;6.786;2023-05-07T12:57:01;2.50;;;2.30;;
12493;SDS011;8260;51.422;6.786;2023-05-07T12:59:32;2.83;;;2.53;;
12493;SDS011;8260;51.422;6.786;2023-05-07T13:02:00;2.88;;;2.53;;
12493;SDS011;8260;51.422;6.786;2023-05-07T13:04:29;3.35;;;2.53;;
12493;SDS011;8260;51.422;6.786;2023-05-07T13:06:58;4.60;;;2.78;;
12493;SDS011;8260;51.422;6.786;2023-05-07T13:09:26;3.45;;;3.15;;
12493;SDS011;8260;51.422;6.786;2023-05-07T13:11:55;3.80;;;3.50;;
12493;SDS011;8260;51.422;6.786;2023-05-07T13:14:26;3.40;;;3.10;;
12493;SDS011;8260;51.422;6.786;2023-05-07T13:16:56;5.65;;;2.92;;
12493;SDS011;8260;51.422;6.786;2023-05-07T13:19:24;3.78;;;2.80;;
12493;SDS011;8260;51.422;6.786;2023-05-07T13:21:56;4.10;;;3.58;;
12493;SDS011;8260;51.422;6.786;2023-05-07T13:24:25;3.60;;;3.15;;
12493;SDS011;8260;51.422;6.786;2023-05-07T13:26:53;7.13;;;3.75;;
12493;SDS011;8260;51.422;6.786;2023-05-07T13:29:22;5.15;;;3.80;;
12493;SDS011;8260;51.422;6.786;2023-05-07T13:31:57;3.90;;;3.60;;
12493;SDS011;8260;51.422;6.786;2023-05-07T13:34:26;4.70;;;3.58;;
12493;SDS011;8260;51.422;6.786;2023-05-07T13:36:54;4.43;;;3.75;;
12493;SDS011;8260;51.422;6.786;2023-05-07T13:39:23;4.50;;;4.10;;
12493;SDS011;8260;51.422;6.786;2023-05-07T13:41:51;6.18;;;4.47;;
12493;SDS011;8260;51.422;6.786;2023-05-07T13:44:20;4.38;;;3.80;;
12493;SDS011;8260;51.422;6.786;2023-05-07T13:46:49;4.53;;;4.13;;
12493;SDS011;8260;51.422;6.786;2023-05-07T13:49:19;4.85;;;3.95;;
12493;SDS011;8260;51.422;6.786;2023-05-07T13:51:47;6.05;;;3.63;;
12493;SDS011;8260;51.422;6.786;2023-05-07T13:54:16;6.40;;;4.03;;
12493;SDS011;8260;51.422;6.786;2023-05-07T13:56:45;4.47;;;3.88;;
12493;SDS011;8260;51.422;6.786;2023-05-07T13:59:13;5.60;;;3.90;;
12493;SDS011;8260;51.422;6.786;2023-05-07T14:01:42;8.45;;;4.40;;
12493;SDS011;8260;51.422;6.786;2023-05-07T14:04:11;5.47;;;3.70;;
12493;SDS011;8260;51.422;6.786;2023-05-07T14:06:41;5.45;;;4.95;;
12493;SDS011;8260;51.422;6.786;2023-05-07T14:09:10;4.78;;;4.30;;
12493;SDS011;8260;51.422;6.786;2023-05-07T14:11:39;5.13;;;4.63;;
12493;SDS011;8260;51.422;6.786;2023-05-07T14:14:08;5.13;;;4.63;;
12493;SDS011;8260;51.422;6.786;2023-05-07T14:16:38;5.35;;;4.85;;
12493;SDS011;8260;51.422;6.786;2023-05-07T14:19:06;6.10;;;5.53;;
12493;SDS011;8260;51.422;6.786;2023-05-07T14:21:35;7.07;;;5.75;;
12493;SDS011;8260;51.422;6.786;2023-05-07T14:24:05;7.13;;;6.40;;
12493;SDS011;8260;51.422;6.786;2023-05-07T14:26:34;6.95;;;5.95;;
12493;SDS011;8260;51.422;6.786;2023-05-07T14:29:02;8.45;;;6.63;;
12493;SDS011;8260;51.422;6.786;2023-05-07T14:31:31;7.63;;;6.38;;
12493;SDS011;8260;51.422;6.786;2023-05-07T14:34:00;11.88;;;6.97;;
12493;SDS011;8260;51.422;6.786;2023-05-07T14:36:29;8.65;;;5.97;;
12493;SDS011;8260;51.422;6.786;2023-05-07T14:38:58;7.20;;;6.47;;
12493;SDS011;8260;51.422;6.786;2023-05-07T14:41:28;9.50;;;7.40;;
12493;SDS011;8260;51.422;6.786;2023-05-07T14:43:57;9.30;;;6.35;;
12493;SDS011;8260;51.422;6.786;2023-05-07T14:46:25;7.78;;;5.78;;
12493;SDS011;8260;51.422;6.786;2023-05-07T14:48:55;10.63;;;6.55;;
12493;SDS011;8260;51.422;6.786;2023-05-07T14:51:24;8.10;;;7.30;;
12493;SDS011;8260;51.422;6.786;2023-05-07T14:53:54;8.18;;;6.95;;
12493;SDS011;8260;51.422;6.786;2023-05-07T14:56:22;6.88;;;6.28;;
12493;SDS011;8260;51.422;6.786;2023-05-07T14:58:53;7.70;;;6.22;;
12493;SDS011;8260;51.422;6.786;2023-05-07T15:01:22;6.55;;;5.95;;
12493;SDS011;8260;51.422;6.786;2023-05-07T15:03:50;7.80;;;6.68;;
12493;SDS011;8260;51.422;6.786;2023-05-07T15:06:19;8.68;;;6.78;;
12493;SDS011;8260;51.422;6.786;2023-05-07T15:08:47;7.10;;;6.35;;
12493;SDS011;8260;51.422;6.786;2023-05-07T15:11:16;7.50;;;6.60;;
12493;SDS011;8260;51.422;6.786;2023-05-07T15:13:44;7.20;;;6.50;;
12493;SDS011;8260;51.422;6.786;2023-05-07T15:16:14;7.57;;;6.10;;
12493;SDS011;8260;51.422;6.786;2023-05-07T15:18:43;7.65;;;6.85;;
12493;SDS011;8260;51.422;6.786;2023-05-07T15:21:12;9.40;;;7.05;;
12493;SDS011;8260;51.422;6.786;2023-05-07T15:23:41;7.47;;;6.78;;
12493;SDS011;8260;51.422;6.786;2023-05-07T15:26:10;8.98;;;7.03;;